Time;durP1;ratioP1;P1;durP2;ratioP2;P2;SDS_P1;SDS_P2;PMS_P1;PMS_P2;Temp;Humidity;BMP_temperature;BMP_pressure;BME280_temperature;BME280_humidity;BME280_pressure;Samples;Min_cycle;Max_cycle;Signal;HPM_P1;HPM_P2
2022/02/22 00:01:49;;;;;;;3.07;1.77;;;6.80;77.00;;;;;;4990608;28;20389;-73
2022/02/22 00:04:15;;;;;;;3.33;1.40;;;6.80;76.40;;;;;;4991608;28;20680;-73
2022/02/22 00:06:40;;;;;;;6.60;1.50;;;6.90;76.50;;;;;;4991512;28;20187;-72
2022/02/22 00:09:06;;;;;;;6.70;1.70;;;6.80;76.40;;;;;;4988721;28;20224;-72
2022/02/22 00:11:33;;;;;;;10.53;2.80;;;6.80;76.70;;;;;;4990960;28;20190;-74
2022/02/22 00:13:59;;;;;;;5.57;2.37;;;6.80;76.20;;;;;;4989140;28;20227;-73
2022/02/22 00:16:24;;;;;;;6.23;3.23;;;6.90;75.90;;;;;;4993624;28;20461;-72
2022/02/22 00:18:50;;;;;;;10.33;2.77;;;6.80;75.50;;;;;;4993532;28;20586;-72
2022/02/22 00:21:16;;;;;;;8.90;3.40;;;6.80;75.40;;;;;;4985195;28;20722;-73
2022/02/22 00:23:42;;;;;;;5.23;2.47;;;6.90;75.50;;;;;;4991345;28;20720;-71
2022/02/22 00:26:08;;;;;;;22.47;10.80;;;6.90;75.20;;;;;;4990686;28;20457;-73
2022/02/22 00:28:33;;;;;;;19.13;7.33;;;6.90;74.60;;;;;;4983541;28;20266;-72
2022/02/22 00:30:59;;;;;;;6.13;2.67;;;6.90;74.30;;;;;;4990096;28;20210;-74
2022/02/22 00:33:25;;;;;;;7.93;2.33;;;6.90;75.20;;;;;;4990112;28;20735;-73
2022/02/22 00:35:51;;;;;;;5.63;1.90;;;6.80;76.70;;;;;;4990750;28;20232;-73
2022/02/22 00:38:17;;;;;;;3.97;2.00;;;6.70;77.40;;;;;;4990022;28;20186;-71
2022/02/22 00:40:43;;;;;;;4.67;1.90;;;6.60;78.10;;;;;;4990181;28;20278;-73
2022/02/22 00:43:09;;;;;;;7.33;1.70;;;6.60;77.80;;;;;;4990102;28;20564;-73
2022/02/22 00:45:35;;;;;;;3.00;1.50;;;6.60;77.40;;;;;;4990389;28;20179;-74
2022/02/22 00:48:01;;;;;;;5.10;1.63;;;6.70;76.70;;;;;;4989849;28;20194;-74
2022/02/22 00:50:28;;;;;;;4.23;1.93;;;6.70;75.80;;;;;;4990606;28;21148;-72
2022/02/22 00:52:56;;;;;;;7.03;1.90;;;6.70;75.50;;;;;;4993633;28;20477;-72
2022/02/22 00:55:22;;;;;;;5.30;2.13;;;6.70;74.90;;;;;;4991542;28;20950;-72
2022/02/22 00:57:48;;;;;;;7.73;2.10;;;6.70;75.20;;;;;;4995342;28;20456;-72
2022/02/22 01:00:14;;;;;;;10.90;1.80;;;6.70;75.40;;;;;;4999013;28;20481;-73
2022/02/22 01:02:40;;;;;;;10.07;2.70;;;6.70;75.10;;;;;;4998732;28;20211;-71
2022/02/22 01:05:06;;;;;;;3.73;1.77;;;6.70;74.50;;;;;;5003363;28;20425;-73
2022/02/22 01:07:33;;;;;;;6.73;2.73;;;6.70;74.60;;;;;;4993953;28;20186;-71
2022/02/22 01:09:58;;;;;;;11.67;3.63;;;6.60;75.10;;;;;;4989725;28;20509;-72
2022/02/22 01:12:24;;;;;;;10.37;3.93;;;6.70;75.20;;;;;;4990155;28;20445;-71
2022/02/22 01:14:50;;;;;;;7.10;2.07;;;6.60;75.10;;;;;;4990516;28;20268;-72
2022/02/22 01:17:16;;;;;;;10.20;2.37;;;6.60;74.60;;;;;;4990432;28;20421;-71
2022/02/22 01:19:42;;;;;;;6.17;2.83;;;6.60;74.50;;;;;;4989597;28;20660;-72
2022/02/22 01:22:08;;;;;;;7.23;3.57;;;6.60;74.80;;;;;;4988926;28;20225;-71
2022/02/22 01:24:34;;;;;;;13.80;3.30;;;6.60;74.60;;;;;;4985898;28;20439;-74
2022/02/22 01:26:59;;;;;;;10.70;3.17;;;6.60;74.60;;;;;;4989936;28;20449;-75
2022/02/22 01:29:26;;;;;;;5.33;2.00;;;6.60;75.40;;;;;;4991351;28;20432;-72
2022/02/22 01:31:52;;;;;;;10.07;2.40;;;6.50;75.70;;;;;;4991381;28;20862;-72
2022/02/22 01:34:18;;;;;;;4.40;2.43;;;6.50;75.90;;;;;;4991616;28;20482;-73
2022/02/22 01:36:45;;;;;;;9.07;2.30;;;6.50;76.40;;;;;;4986639;28;20433;-74
2022/02/22 01:39:11;;;;;;;5.37;2.40;;;6.60;76.40;;;;;;4991353;28;20194;-73
2022/02/22 01:41:44;;;;;;;7.40;1.83;;;6.50;76.70;;;;;;4991187;28;20480;-71
2022/02/22 01:44:11;;;;;;;5.40;2.13;;;6.70;77.10;;;;;;4991584;28;20998;-75
2022/02/22 01:46:37;;;;;;;5.47;2.10;;;6.50;79.60;;;;;;4993004;28;20777;-74
2022/02/22 01:49:03;;;;;;;7.93;2.60;;;6.40;81.80;;;;;;4992622;28;20489;-74
2022/02/22 01:51:29;;;;;;;7.03;2.20;;;6.30;83.30;;;;;;4993422;28;20517;-74
2022/02/22 01:53:54;;;;;;;7.63;2.13;;;6.10;84.10;;;;;;4991072;28;20529;-74
2022/02/22 01:56:23;;;;;;;4.93;2.13;;;6.10;85.00;;;;;;4992132;28;20218;-72
2022/02/22 01:58:49;;;;;;;5.13;2.00;;;5.90;85.20;;;;;;4987503;28;20210;-72
2022/02/22 02:01:15;;;;;;;7.60;2.57;;;5.90;85.60;;;;;;4991579;28;20505;-73
2022/02/22 02:03:41;;;;;;;5.80;2.93;;;5.80;85.60;;;;;;4991366;28;20453;-74
2022/02/22 02:06:07;;;;;;;5.40;2.27;;;5.80;85.70;;;;;;4991920;28;20786;-72
2022/02/22 02:08:33;;;;;;;6.00;2.77;;;5.80;85.60;;;;;;4993097;28;20186;-74
2022/02/22 02:11:00;;;;;;;7.30;2.30;;;5.80;84.90;;;;;;4991769;28;20707;-74
2022/02/22 02:13:27;;;;;;;4.60;2.30;;;5.80;84.90;;;;;;4988321;28;20582;-75
2022/02/22 02:15:53;;;;;;;3.50;1.77;;;5.80;84.40;;;;;;4990998;28;20429;-72
2022/02/22 02:18:19;;;;;;;9.57;2.00;;;5.80;84.00;;;;;;4990756;28;20433;-73
2022/02/22 02:20:44;;;;;;;5.27;2.03;;;5.80;82.80;;;;;;4998996;28;20472;-72
2022/02/22 02:23:10;;;;;;;5.20;2.00;;;5.80;82.20;;;;;;5000447;28;20209;-72
2022/02/22 02:25:36;;;;;;;4.37;1.70;;;5.80;82.40;;;;;;4999413;28;20260;-73
2022/02/22 02:28:02;;;;;;;5.00;1.80;;;5.80;81.80;;;;;;4998207;28;20179;-72
2022/02/22 02:30:28;;;;;;;7.37;2.40;;;5.80;81.20;;;;;;5000143;28;20221;-72
2022/02/22 02:32:54;;;;;;;7.17;1.90;;;5.90;81.10;;;;;;5000638;28;20269;-71
2022/02/22 02:35:19;;;;;;;3.97;1.90;;;5.90;81.10;;;;;;4989928;28;20438;-73
2022/02/22 02:37:45;;;;;;;4.50;1.90;;;5.90;81.40;;;;;;4995046;28;20277;-71
2022/02/22 02:40:11;;;;;;;4.13;2.33;;;5.90;81.50;;;;;;4993936;28;20192;-73
2022/02/22 02:42:42;;;;;;;9.70;1.90;;;5.80;81.80;;;;;;4991086;28;20222;-71
2022/02/22 02:45:09;;;;;;;3.30;1.57;;;5.80;81.90;;;;;;4991618;28;20445;-70
2022/02/22 02:47:35;;;;;;;5.33;1.93;;;5.80;82.20;;;;;;4989556;28;20438;-71
2022/02/22 02:50:01;;;;;;;9.60;4.50;;;5.80;82.20;;;;;;4993531;28;20441;-71
2022/02/22 02:52:27;;;;;;;6.33;1.97;;;5.80;82.10;;;;;;4994677;28;20445;-71
2022/02/22 02:54:54;;;;;;;3.10;2.30;;;5.70;82.40;;;;;;4994520;28;20434;-72
2022/02/22 02:57:20;;;;;;;5.63;2.10;;;5.80;81.70;;;;;;4983655;28;20715;-70
2022/02/22 02:59:47;;;;;;;9.50;1.83;;;5.70;81.70;;;;;;4989365;28;20434;-71
2022/02/22 03:02:13;;;;;;;8.93;1.87;;;5.70;81.70;;;;;;4994653;28;20469;-73
2022/02/22 03:04:39;;;;;;;9.00;2.30;;;5.70;81.50;;;;;;4993321;28;21331;-73
2022/02/22 03:07:05;;;;;;;7.33;2.60;;;5.70;81.50;;;;;;4991208;28;20429;-71
2022/02/22 03:09:30;;;;;;;6.70;2.40;;;5.70;81.20;;;;;;4991842;28;20182;-71
2022/02/22 03:11:56;;;;;;;6.90;2.03;;;5.70;80.60;;;;;;4993382;28;20221;-71
2022/02/22 03:14:22;;;;;;;6.50;1.87;;;5.70;79.70;;;;;;4993772;28;20442;-74
2022/02/22 03:16:48;;;;;;;10.63;2.40;;;5.80;78.70;;;;;;4994276;28;20540;-73
2022/02/22 03:19:14;;;;;;;8.10;1.80;;;5.80;78.40;;;;;;4993318;28;20418;-70
2022/02/22 03:21:40;;;;;;;12.20;2.27;;;5.80;77.80;;;;;;4993498;28;20238;-71
2022/02/22 03:24:07;;;;;;;9.50;2.23;;;5.80;77.80;;;;;;4991948;28;20579;-70
2022/02/22 03:26:33;;;;;;;4.50;1.97;;;5.90;77.80;;;;;;4993935;28;20919;-72
2022/02/22 03:28:59;;;;;;;7.93;2.10;;;5.90;78.00;;;;;;4992884;28;20425;-72
2022/02/22 03:31:29;;;;;;;5.60;2.50;;;5.90;78.40;;;;;;4992289;28;20225;-72
2022/02/22 03:33:56;;;;;;;4.90;1.70;;;5.90;78.60;;;;;;4991904;28;21603;-74
2022/02/22 03:36:22;;;;;;;8.87;2.30;;;5.80;78.70;;;;;;4993891;28;20985;-71
2022/02/22 03:38:49;;;;;;;5.17;1.80;;;5.80;79.30;;;;;;4988807;28;20447;-72
2022/02/22 03:41:16;;;;;;;6.80;2.33;;;5.80;79.30;;;;;;4992920;28;20608;-70
2022/02/22 03:43:42;;;;;;;5.70;2.20;;;5.80;79.50;;;;;;4991576;28;20460;-72
2022/02/22 03:46:08;;;;;;;11.60;2.13;;;5.80;79.50;;;;;;4993713;28;20512;-72
2022/02/22 03:48:33;;;;;;;6.43;2.13;;;5.80;79.90;;;;;;4992918;28;20453;-72
2022/02/22 03:50:59;;;;;;;5.37;2.10;;;5.70;80.20;;;;;;4993178;28;20182;-70
2022/02/22 03:53:25;;;;;;;7.33;2.17;;;5.80;80.30;;;;;;4989766;28;20202;-70
2022/02/22 03:55:51;;;;;;;6.70;2.13;;;5.70;80.50;;;;;;4987543;28;20780;-71
2022/02/22 03:58:16;;;;;;;4.97;2.07;;;5.70;80.90;;;;;;4992573;28;20195;-73
2022/02/22 04:00:42;;;;;;;7.20;2.27;;;5.70;81.20;;;;;;4989498;28;20552;-72
2022/02/22 04:03:11;;;;;;;6.13;2.20;;;5.70;81.20;;;;;;4988892;28;20554;-70
2022/02/22 04:05:37;;;;;;;5.67;2.10;;;5.70;81.50;;;;;;4993060;28;20921;-72
2022/02/22 04:08:03;;;;;;;6.53;2.10;;;5.70;81.90;;;;;;4992521;28;21130;-71
2022/02/22 04:10:29;;;;;;;5.37;2.20;;;5.70;82.20;;;;;;4992629;28;20418;-72
2022/02/22 04:12:55;;;;;;;3.87;2.20;;;5.70;82.20;;;;;;4992297;28;20452;-70
2022/02/22 04:15:20;;;;;;;8.87;2.30;;;5.70;81.90;;;;;;4989921;28;20429;-71
2022/02/22 04:17:46;;;;;;;3.40;2.03;;;5.70;81.40;;;;;;4992289;28;20183;-70
2022/02/22 04:20:12;;;;;;;3.70;1.80;;;5.40;84.30;;;;;;4992267;28;20190;-72
2022/02/22 04:22:39;;;;;;;5.90;3.40;;;5.20;86.90;;;;;;4992087;28;20571;-73
2022/02/22 04:25:06;;;;;;;4.47;2.20;;;5.10;87.00;;;;;;4992813;28;20185;-71
2022/02/22 04:27:33;;;;;;;3.50;2.27;;;5.10;87.80;;;;;;4991921;28;20938;-71
2022/02/22 04:29:58;;;;;;;6.47;2.43;;;5.20;88.10;;;;;;4991874;28;20508;-70
2022/02/22 04:32:24;;;;;;;10.80;2.83;;;5.20;88.10;;;;;;4990289;28;20553;-71
2022/02/22 04:34:50;;;;;;;8.20;3.57;;;5.30;88.40;;;;;;4992662;28;20186;-71
2022/02/22 04:37:17;;;;;;;6.53;2.93;;;5.30;88.40;;;;;;4993037;28;20765;-72
2022/02/22 04:39:44;;;;;;;6.90;2.73;;;5.20;88.60;;;;;;4999315;28;20421;-71
2022/02/22 04:42:10;;;;;;;5.07;2.30;;;5.20;88.70;;;;;;4995495;28;20532;-73
2022/02/22 04:44:36;;;;;;;8.23;3.10;;;5.20;87.30;;;;;;4996575;28;20425;-72
2022/02/22 04:47:01;;;;;;;6.83;3.30;;;5.30;86.80;;;;;;4993326;28;20429;-71
2022/02/22 04:49:27;;;;;;;6.83;2.70;;;5.30;85.90;;;;;;4992403;28;20189;-71
2022/02/22 04:51:53;;;;;;;7.63;3.53;;;5.30;85.60;;;;;;4991651;28;20847;-70
2022/02/22 04:54:19;;;;;;;8.50;2.57;;;5.30;84.30;;;;;;4992429;28;20183;-73
2022/02/22 04:56:45;;;;;;;5.30;2.43;;;5.30;84.00;;;;;;4989719;28;20190;-72
2022/02/22 04:59:10;;;;;;;4.23;2.23;;;5.30;83.80;;;;;;4991359;28;20836;-71
2022/02/22 05:01:36;;;;;;;6.40;3.00;;;5.40;83.30;;;;;;4987288;28;20449;-78
2022/02/22 05:04:02;;;;;;;9.87;3.27;;;5.40;83.30;;;;;;4990890;28;20189;-71
2022/02/22 05:06:28;;;;;;;5.07;2.53;;;5.30;83.60;;;;;;4993113;28;20194;-70
2022/02/22 05:08:53;;;;;;;9.37;2.40;;;5.30;83.80;;;;;;4991410;28;20270;-73
2022/02/22 05:11:19;;;;;;;6.27;2.80;;;5.30;84.00;;;;;;4986199;28;20306;-73
2022/02/22 05:13:45;;;;;;;4.63;2.20;;;5.30;84.40;;;;;;4989569;28;20218;-72
2022/02/22 05:16:11;;;;;;;6.60;2.93;;;5.30;84.60;;;;;;4988966;28;20641;-73
2022/02/22 05:18:37;;;;;;;4.57;2.80;;;5.30;84.70;;;;;;4991274;28;20189;-70
2022/02/22 05:21:02;;;;;;;6.83;2.50;;;5.30;84.70;;;;;;4986863;28;20214;-72
2022/02/22 05:23:33;;;;;;;6.30;2.43;;;5.30;84.90;;;;;;4991587;28;20507;-73
2022/02/22 05:25:59;;;;;;;8.73;2.20;;;5.30;84.70;;;;;;4991794;28;20537;-73
2022/02/22 05:28:26;;;;;;;11.17;3.53;;;5.20;84.90;;;;;;4990837;28;20414;-71
2022/02/22 05:30:52;;;;;;;4.60;2.53;;;5.20;85.00;;;;;;4991349;28;20504;-70
2022/02/22 05:33:19;;;;;;;4.57;2.30;;;5.20;85.00;;;;;;4990722;28;20446;-71
2022/02/22 05:35:47;;;;;;;4.77;2.70;;;5.20;84.90;;;;;;4988077;28;20430;-74
2022/02/22 05:38:13;;;;;;;5.33;2.60;;;5.20;85.00;;;;;;4989389;28;20448;-71
2022/02/22 05:40:39;;;;;;;7.47;2.80;;;5.20;84.70;;;;;;4990996;28;21276;-70
2022/02/22 05:43:06;;;;;;;6.27;2.70;;;5.10;84.70;;;;;;4991074;28;20438;-71
2022/02/22 05:45:32;;;;;;;6.60;2.70;;;5.10;84.40;;;;;;4991067;28;20422;-71
2022/02/22 05:47:57;;;;;;;6.57;2.80;;;5.10;84.60;;;;;;4991107;28;20935;-71
2022/02/22 05:50:24;;;;;;;7.07;3.20;;;5.10;84.30;;;;;;4991242;28;20449;-71
2022/02/22 05:52:52;;;;;;;10.30;2.70;;;5.10;84.40;;;;;;4990918;28;20206;-72
2022/02/22 05:55:18;;;;;;;7.67;3.30;;;5.10;84.40;;;;;;4991685;28;20422;-72
2022/02/22 05:57:44;;;;;;;10.47;2.63;;;5.10;84.10;;;;;;4991110;28;20448;-70
2022/02/22 06:00:10;;;;;;;5.00;2.47;;;5.10;83.40;;;;;;4988818;28;20989;-71
2022/02/22 06:02:37;;;;;;;8.93;2.70;;;5.10;83.40;;;;;;4990310;28;20241;-71
2022/02/22 06:05:03;;;;;;;7.63;2.90;;;5.10;83.30;;;;;;4991638;28;20842;-71
2022/02/22 06:07:29;;;;;;;5.70;2.80;;;5.10;83.30;;;;;;4991727;28;20421;-71
2022/02/22 06:09:55;;;;;;;5.87;2.10;;;5.00;83.30;;;;;;4991009;28;20513;-73
2022/02/22 06:12:21;;;;;;;14.00;3.17;;;5.00;83.30;;;;;;4990560;28;20514;-74
2022/02/22 06:14:47;;;;;;;9.20;2.57;;;5.10;83.30;;;;;;4988613;28;20453;-71
2022/02/22 06:17:13;;;;;;;9.73;2.50;;;5.00;82.80;;;;;;4990884;28;20439;-73
2022/02/22 06:19:39;;;;;;;15.30;2.80;;;5.00;83.00;;;;;;4990339;28;20182;-71
2022/02/22 06:22:05;;;;;;;10.57;2.80;;;5.00;83.10;;;;;;4989924;28;21388;-74
2022/02/22 06:24:31;;;;;;;4.90;2.30;;;5.00;83.40;;;;;;4990700;28;20414;-72
2022/02/22 06:26:57;;;;;;;8.57;2.47;;;5.00;83.40;;;;;;4991073;28;21358;-72
2022/02/22 06:29:23;;;;;;;12.73;2.77;;;5.00;83.30;;;;;;4990557;28;20601;-72
2022/02/22 06:31:50;;;;;;;8.60;3.00;;;5.00;83.60;;;;;;4987348;28;20186;-73
2022/02/22 06:34:19;;;;;;;8.63;2.80;;;5.00;83.60;;;;;;4990914;28;20995;-72
2022/02/22 06:36:46;;;;;;;5.93;2.60;;;5.00;83.70;;;;;;4986501;28;20442;-70
2022/02/22 06:39:12;;;;;;;10.30;2.70;;;5.00;83.80;;;;;;4988934;28;20436;-72
2022/02/22 06:41:37;;;;;;;6.67;2.73;;;5.10;84.10;;;;;;4984903;28;20449;-74
2022/02/22 06:44:05;;;;;;;8.60;3.07;;;5.10;84.10;;;;;;4990328;28;20273;-71
2022/02/22 06:46:31;;;;;;;6.20;2.40;;;5.10;84.10;;;;;;4990299;28;20178;-70
2022/02/22 06:48:57;;;;;;;12.10;2.80;;;5.20;84.10;;;;;;4989752;28;20421;-72
2022/02/22 06:51:23;;;;;;;7.57;3.77;;;5.20;84.10;;;;;;4989888;28;20437;-73
2022/02/22 06:53:48;;;;;;;8.53;3.37;;;5.20;84.10;;;;;;4989761;28;20205;-71
2022/02/22 06:56:14;;;;;;;5.40;2.77;;;5.20;84.30;;;;;;4990404;28;20440;-72
2022/02/22 06:58:40;;;;;;;8.17;3.43;;;5.20;84.10;;;;;;4989689;28;20178;-73
2022/02/22 07:01:06;;;;;;;8.37;3.23;;;5.20;84.10;;;;;;4990227;28;20202;-74
2022/02/22 07:03:31;;;;;;;7.67;3.07;;;5.20;84.10;;;;;;4989567;28;20569;-73
2022/02/22 07:05:57;;;;;;;10.50;3.23;;;5.20;84.00;;;;;;4990099;28;20186;-74
2022/02/22 07:08:23;;;;;;;12.70;3.53;;;5.20;83.80;;;;;;4989841;28;20665;-71
2022/02/22 07:10:49;;;;;;;12.47;3.73;;;5.10;83.80;;;;;;4991528;28;20215;-73
2022/02/22 07:13:15;;;;;;;14.93;3.30;;;5.10;84.00;;;;;;4989482;28;20230;-71
2022/02/22 07:15:41;;;;;;;11.27;4.00;;;5.10;84.00;;;;;;4987375;28;20432;-72
2022/02/22 07:18:09;;;;;;;7.83;3.33;;;5.10;84.30;;;;;;4989490;28;20807;-71
2022/02/22 07:20:36;;;;;;;8.00;3.37;;;5.10;84.10;;;;;;4989794;28;20175;-72
2022/02/22 07:23:02;;;;;;;10.67;2.83;;;5.10;84.10;;;;;;4989124;28;20449;-72
2022/02/22 07:25:29;;;;;;;9.13;2.93;;;5.10;84.10;;;;;;4989799;28;20550;-72
2022/02/22 07:27:57;;;;;;;11.73;3.40;;;5.20;84.30;;;;;;4989572;28;20438;-71
2022/02/22 07:30:24;;;;;;;11.23;3.37;;;5.30;83.80;;;;;;4989575;28;20464;-73
2022/02/22 07:32:53;;;;;;;9.67;3.07;;;5.40;83.40;;;;;;4989172;28;20471;-71
2022/02/22 07:35:19;;;;;;;6.97;3.27;;;5.60;83.10;;;;;;4986317;28;20538;-72
2022/02/22 07:37:47;;;;;;;6.17;3.67;;;5.70;82.20;;;;;;4993338;28;20936;-72
2022/02/22 07:40:16;;;;;;;12.30;3.33;;;5.80;81.50;;;;;;4992749;28;20669;-72
2022/02/22 07:42:42;;;;;;;8.20;3.03;;;5.80;81.20;;;;;;4993192;28;20469;-72
2022/02/22 07:45:09;;;;;;;10.40;3.10;;;5.70;80.80;;;;;;4993733;28;20426;-73
2022/02/22 07:47:35;;;;;;;8.17;3.63;;;5.70;80.80;;;;;;4992814;28;20430;-72
2022/02/22 07:50:01;;;;;;;8.00;3.23;;;5.60;80.80;;;;;;4992845;28;20429;-71
2022/02/22 07:52:30;;;;;;;5.80;2.97;;;5.60;80.90;;;;;;4992334;28;20321;-71
2022/02/22 07:54:56;;;;;;;9.37;3.27;;;5.70;80.60;;;;;;4992797;28;20495;-72
2022/02/22 07:57:22;;;;;;;9.60;3.17;;;5.70;80.60;;;;;;4992502;28;20421;-72
2022/02/22 07:59:49;;;;;;;9.13;3.17;;;5.70;80.20;;;;;;4992667;28;20990;-73
2022/02/22 08:02:15;;;;;;;10.33;2.90;;;5.80;79.70;;;;;;4992329;28;20838;-73
2022/02/22 08:04:41;;;;;;;9.93;2.47;;;5.80;79.50;;;;;;4992988;28;20484;-70
2022/02/22 08:07:08;;;;;;;10.73;2.70;;;5.90;78.60;;;;;;4992588;28;20840;-72
2022/02/22 08:09:34;;;;;;;10.73;3.30;;;5.90;77.60;;;;;;4991340;28;20426;-73
2022/02/22 08:12:00;;;;;;;5.37;2.33;;;6.00;77.30;;;;;;4992015;28;20465;-72
2022/02/22 08:14:26;;;;;;;8.40;3.00;;;6.00;77.10;;;;;;4989497;28;20920;-72
2022/02/22 08:16:57;;;;;;;8.43;2.73;;;6.10;76.80;;;;;;4992700;28;20296;-72
2022/02/22 08:19:24;;;;;;;5.43;2.70;;;6.20;76.70;;;;;;4989087;28;20429;-72
2022/02/22 08:21:50;;;;;;;5.10;2.43;;;6.20;75.80;;;;;;4986686;28;20501;-73
2022/02/22 08:24:15;;;;;;;10.00;3.17;;;6.30;76.10;;;;;;4991223;28;20460;-73
2022/02/22 08:26:41;;;;;;;6.67;2.77;;;6.30;75.80;;;;;;4992747;28;20175;-73
2022/02/22 08:29:07;;;;;;;12.87;2.90;;;6.40;75.40;;;;;;4991918;28;20190;-71
2022/02/22 08:31:33;;;;;;;8.30;3.30;;;6.40;75.40;;;;;;4991333;28;20193;-74
2022/02/22 08:34:00;;;;;;;15.40;2.70;;;6.50;75.50;;;;;;4992031;28;20195;-72
2022/02/22 08:36:29;;;;;;;10.60;2.87;;;6.60;75.20;;;;;;4992742;28;20978;-71
2022/02/22 08:38:55;;;;;;;6.80;3.30;;;6.60;74.00;;;;;;4987942;28;20861;-73
2022/02/22 08:41:22;;;;;;;8.57;2.57;;;6.60;74.30;;;;;;4992527;28;20469;-73
2022/02/22 08:43:49;;;;;;;5.67;2.87;;;6.70;74.00;;;;;;4991991;28;20453;-70
2022/02/22 08:46:15;;;;;;;12.73;3.53;;;6.80;73.50;;;;;;4991574;28;20429;-73
2022/02/22 08:48:41;;;;;;;4.03;2.47;;;6.90;73.30;;;;;;4990102;28;20483;-72
2022/02/22 08:51:07;;;;;;;13.13;3.53;;;7.00;73.60;;;;;;4992424;28;20484;-72
2022/02/22 08:53:33;;;;;;;7.23;3.00;;;7.20;73.00;;;;;;4991841;28;20213;-71
2022/02/22 08:56:00;;;;;;;4.23;2.70;;;7.30;72.70;;;;;;4992437;28;20456;-72
2022/02/22 08:58:27;;;;;;;14.03;3.07;;;7.40;72.30;;;;;;4991169;28;20186;-72
2022/02/22 09:00:52;;;;;;;11.17;3.33;;;7.50;72.60;;;;;;4991709;28;20434;-73
2022/02/22 09:03:18;;;;;;;14.60;2.70;;;7.40;72.40;;;;;;4989573;28;20464;-72
2022/02/22 09:05:44;;;;;;;5.33;2.70;;;7.40;72.30;;;;;;4991791;28;20196;-72
2022/02/22 09:08:10;;;;;;;6.50;2.97;;;7.30;72.30;;;;;;4989769;28;20233;-71
2022/02/22 09:10:36;;;;;;;9.27;2.50;;;7.30;72.70;;;;;;4991786;28;20175;-71
2022/02/22 09:13:02;;;;;;;5.60;2.30;;;7.30;73.20;;;;;;4991717;28;20878;-73
2022/02/22 09:15:31;;;;;;;11.37;2.80;;;7.30;73.20;;;;;;4990070;28;20421;-72
2022/02/22 09:18:01;;;;;;;7.70;2.50;;;7.40;73.50;;;;;;4989490;28;20500;-73
2022/02/22 09:20:27;;;;;;;9.70;3.30;;;7.40;72.90;;;;;;4991950;28;20464;-72
2022/02/22 09:22:53;;;;;;;3.60;2.07;;;7.50;72.90;;;;;;4990553;28;20552;-73
2022/02/22 09:25:19;;;;;;;7.83;2.47;;;7.40;73.00;;;;;;4983765;28;20541;-72
2022/02/22 09:27:46;;;;;;;20.20;4.33;;;7.50;73.20;;;;;;4990804;28;20932;-70
2022/02/22 09:30:14;;;;;;;15.23;2.70;;;7.70;73.50;;;;;;4989304;28;20191;-71
2022/02/22 09:32:42;;;;;;;7.60;2.37;;;7.70;73.30;;;;;;4990430;28;20447;-72
2022/02/22 09:35:08;;;;;;;13.53;3.47;;;7.90;72.70;;;;;;4983500;28;20541;-72
2022/02/22 09:37:33;;;;;;;14.70;3.30;;;7.90;72.70;;;;;;4988793;28;20508;-72
2022/02/22 09:39:59;;;;;;;11.00;2.90;;;7.80;72.40;;;;;;4988111;28;20529;-71
2022/02/22 09:42:26;;;;;;;10.73;2.50;;;7.80;73.00;;;;;;4988008;28;20284;-72
2022/02/22 09:44:52;;;;;;;10.03;3.20;;;7.80;73.60;;;;;;4989532;28;20286;-71
2022/02/22 09:47:18;;;;;;;8.27;2.93;;;7.90;73.30;;;;;;4988072;28;20433;-71
2022/02/22 09:49:44;;;;;;;4.40;2.30;;;8.00;73.50;;;;;;4986923;28;20453;-72
2022/02/22 09:52:11;;;;;;;9.77;2.80;;;8.20;72.90;;;;;;4988070;28;21014;-72
2022/02/22 09:54:37;;;;;;;8.33;1.80;;;8.20;72.40;;;;;;4989141;28;20835;-73
2022/02/22 09:57:03;;;;;;;10.00;3.10;;;8.10;71.80;;;;;;4988863;28;20433;-72
2022/02/22 09:59:29;;;;;;;12.73;5.53;;;8.20;72.10;;;;;;4987241;28;20249;-72
2022/02/22 10:01:57;;;;;;;7.60;2.40;;;8.20;71.70;;;;;;4988198;28;20510;-72
2022/02/22 10:04:24;;;;;;;6.97;2.53;;;8.10;71.80;;;;;;4988774;28;20182;-70
2022/02/22 10:06:51;;;;;;;8.13;2.50;;;8.10;72.40;;;;;;4988008;28;20518;-72
2022/02/22 10:09:19;;;;;;;10.33;2.40;;;8.10;72.40;;;;;;4988159;28;20426;-71
2022/02/22 10:11:52;;;;;;;8.97;2.40;;;8.20;71.80;;;;;;4983199;28;20442;-72
2022/02/22 10:14:26;;;;;;;7.23;2.20;;;8.50;71.60;;;;;;4985384;28;20476;-70
2022/02/22 10:16:54;;;;;;;9.63;3.07;;;8.60;69.50;;;;;;4988146;28;20437;-73
2022/02/22 10:19:21;;;;;;;6.70;2.03;;;8.60;69.40;;;;;;4988457;28;20901;-71
2022/02/22 10:21:51;;;;;;;6.57;2.20;;;8.60;69.70;;;;;;4987211;28;20476;-72
2022/02/22 10:24:19;;;;;;;12.43;2.80;;;8.70;69.40;;;;;;4988521;28;20434;-71
2022/02/22 10:26:45;;;;;;;7.03;2.60;;;8.70;69.50;;;;;;4988145;28;20487;-70
2022/02/22 10:29:20;;;;;;;5.60;2.47;;;8.80;69.50;;;;;;4987730;28;20920;-71
2022/02/22 10:31:47;;;;;;;9.00;3.03;;;8.90;69.40;;;;;;4987062;28;20436;-73
2022/02/22 10:34:14;;;;;;;5.90;2.60;;;9.00;69.50;;;;;;4988685;28;20537;-72
2022/02/22 10:36:43;;;;;;;14.30;4.00;;;8.80;69.50;;;;;;4982158;28;20437;-73
2022/02/22 10:39:11;;;;;;;10.47;2.90;;;8.80;69.90;;;;;;4987950;28;20613;-70
2022/02/22 10:41:47;;;;;;;15.97;2.87;;;8.70;70.70;;;;;;4987938;28;20466;-71
2022/02/22 10:44:29;;;;;;;10.10;2.90;;;8.80;70.70;;;;;;4987940;28;20436;-71
2022/02/22 10:46:58;;;;;;;8.27;3.13;;;8.70;70.70;;;;;;4987513;28;20919;-73
2022/02/22 10:49:25;;;;;;;10.37;3.23;;;8.70;70.80;;;;;;4986216;28;20410;-70
2022/02/22 10:51:51;;;;;;;5.77;2.70;;;8.80;70.40;;;;;;4987658;28;20465;-72
2022/02/22 10:54:25;;;;;;;10.67;3.30;;;9.00;70.70;;;;;;4988430;28;20422;-73
2022/02/22 10:56:53;;;;;;;11.67;3.40;;;9.10;70.10;;;;;;4988102;28;20421;-73
2022/02/22 10:59:21;;;;;;;13.80;3.03;;;9.10;69.70;;;;;;4988510;28;20802;-72
2022/02/22 11:01:47;;;;;;;10.17;3.43;;;9.20;69.70;;;;;;4987494;28;20541;-71
2022/02/22 11:04:13;;;;;;;9.03;2.60;;;9.40;69.80;;;;;;4988237;28;20434;-70
2022/02/22 11:06:39;;;;;;;10.27;3.90;;;9.50;68.90;;;;;;4988007;28;20452;-71
2022/02/22 11:09:06;;;;;;;13.40;3.33;;;9.30;69.10;;;;;;4987353;28;20797;-70
2022/02/22 11:11:55;;;;;;;13.43;3.33;;;9.20;69.20;;;;;;4990928;28;20261;-72
2022/02/22 11:14:30;;;;;;;10.10;3.57;;;9.20;69.50;;;;;;4988776;28;20528;-71
2022/02/22 11:16:59;;;;;;;8.30;2.47;;;9.20;69.80;;;;;;4992278;28;20437;-71
2022/02/22 11:19:34;;;;;;;8.10;2.53;;;9.20;69.70;;;;;;4986917;28;20438;-72
2022/02/22 11:22:23;;;;;;;5.77;2.70;;;9.10;69.70;;;;;;4991128;28;21295;-70
2022/02/22 11:24:57;;;;;;;8.67;2.97;;;9.00;70.10;;;;;;4988112;28;20425;-74
2022/02/22 11:27:35;;;;;;;9.23;3.03;;;9.00;69.80;;;;;;4992108;28;20409;-70
2022/02/22 11:30:07;;;;;;;5.47;2.43;;;8.90;70.10;;;;;;4992543;28;20785;-71
2022/02/22 11:32:37;;;;;;;12.07;3.10;;;9.00;70.50;;;;;;4993147;28;20452;-71
2022/02/22 11:35:10;;;;;;;8.47;2.87;;;9.20;69.80;;;;;;4993638;28;20798;-71
2022/02/22 11:37:35;;;;;;;7.40;2.50;;;9.20;69.70;;;;;;4987399;28;20520;-71
2022/02/22 11:40:02;;;;;;;7.80;3.40;;;9.20;69.50;;;;;;4994340;28;20950;-73
2022/02/22 11:42:32;;;;;;;7.77;3.20;;;9.20;69.40;;;;;;4993157;28;20645;-72
2022/02/22 11:45:03;;;;;;;5.87;2.80;;;9.20;69.20;;;;;;4993699;28;20936;-72
2022/02/22 11:47:30;;;;;;;8.97;3.17;;;9.30;69.10;;;;;;4986172;28;20429;-71
2022/02/22 11:49:56;;;;;;;8.67;3.17;;;9.40;69.10;;;;;;4991661;28;20433;-72
2022/02/22 11:52:37;;;;;;;5.90;2.43;;;9.50;68.90;;;;;;4994135;28;20525;-73
2022/02/22 11:55:09;;;;;;;9.47;2.90;;;9.50;68.80;;;;;;4996821;28;20428;-73
2022/02/22 11:57:50;;;;;;;7.83;2.57;;;9.40;69.20;;;;;;4996821;28;20421;-72
2022/02/22 12:00:34;;;;;;;8.53;2.67;;;9.30;69.40;;;;;;4992444;28;20520;-72
2022/02/22 12:03:10;;;;;;;6.80;2.70;;;9.30;69.70;;;;;;4992601;28;20469;-72
2022/02/22 12:05:39;;;;;;;5.17;2.83;;;9.40;69.80;;;;;;4988479;28;20461;-71
2022/02/22 12:08:22;;;;;;;11.07;3.90;;;9.40;69.10;;;;;;4992383;28;20417;-72
2022/02/22 12:10:52;;;;;;;7.60;3.00;;;9.50;69.20;;;;;;4992807;28;20846;-72
2022/02/22 12:13:21;;;;;;;7.30;3.23;;;9.70;68.80;;;;;;4991746;28;20464;-72
2022/02/22 12:15:47;;;;;;;8.93;3.60;;;9.90;68.00;;;;;;4989788;28;20545;-72
2022/02/22 12:18:20;;;;;;;5.83;2.67;;;10.10;66.90;;;;;;4991678;28;20426;-72
2022/02/22 12:20:48;;;;;;;7.37;3.40;;;10.10;66.40;;;;;;4992187;28;20510;-73
2022/02/22 12:23:19;;;;;;;7.20;2.47;;;9.90;67.50;;;;;;4992074;28;21009;-72
2022/02/22 12:25:46;;;;;;;7.60;2.90;;;9.70;68.00;;;;;;4992233;28;20502;-71
2022/02/22 12:28:12;;;;;;;12.00;3.00;;;9.60;68.80;;;;;;4992760;28;20488;-71
2022/02/22 12:30:40;;;;;;;7.50;3.23;;;9.60;68.80;;;;;;4993209;28;20761;-73
2022/02/22 12:33:07;;;;;;;9.43;2.60;;;9.50;68.90;;;;;;4992476;28;20210;-73
2022/02/22 12:35:42;;;;;;;7.93;2.40;;;9.40;69.40;;;;;;4991980;28;20426;-72
2022/02/22 12:38:34;;;;;;;5.77;2.13;;;9.30;69.10;;;;;;4991550;28;20788;-71
2022/02/22 12:41:01;;;;;;;6.43;3.00;;;9.40;69.10;;;;;;4985961;28;20438;-74
2022/02/22 12:43:27;;;;;;;5.30;2.50;;;9.50;68.80;;;;;;4990296;28;21303;-73
2022/02/22 12:45:53;;;;;;;8.13;3.30;;;9.50;68.80;;;;;;4990787;28;20516;-74
2022/02/22 12:48:21;;;;;;;13.57;3.20;;;9.60;68.60;;;;;;4985824;28;20183;-74
2022/02/22 12:50:57;;;;;;;6.93;2.87;;;9.70;68.30;;;;;;4992508;28;20955;-71
2022/02/22 12:53:33;;;;;;;9.50;3.47;;;9.90;67.70;;;;;;4991227;28;20480;-72
2022/02/22 12:55:59;;;;;;;11.40;3.60;;;10.00;66.70;;;;;;4992096;28;20790;-72